LXGB

Gibraltar Airport

Gibraltar, Gibraltar
TAF LXGB 201624Z 2018/2022 09016KT 9999 FEW012 BKN025 TEMPO 2018/2022 11017G27KT 6000 HZ SCT012 BKN018 520002
Issued Valid From Valid To
Apr-20 @ 16:24 UTC
(2 hours ago)
Apr-20 @ 18:00 UTC
(27 minutes ago)
Apr-20 @ 22:00 UTC
(in 4 hours)
Apr-20 @ 18:00 to Apr-20 @ 22:00
TAF LXGB 201624Z 2018/2022 09016KT 9999 FEW012 BKN025
Wind Visibility Clouds
90° at 16 knots 10,000+ meters
  • Few at 1,200' AGL
  • Broken at 2,500' AGL
Temporary Apr-20 @ 18:00 to Apr-20 @ 22:00
TEMPO 2018/2022 11017G27KT 6000 HZ SCT012 BKN018 520002
Wind Visibility Clouds Conditions Turbulence
110° at 17 knots
 Gusting to 27 knots
6,003 meters
  • Scattered at 1,200' AGL
  • Broken at 1,800' AGL
  • Haze
Occasional moderate clear air turbulence expected at the surface extending to 2,000' AGL
TAF LXGB 201624Z 2018/2022 09016KT 9999 FEW012 BKN025 TEMPO 2018/2022 11017G27KT 6000 HZ SCT012 BKN018 520002
Issued Apr-20 @ 16:24 UTC
(2 hours ago)
Valid From Apr-20 @ 18:00 UTC
(27 minutes ago)
Valid To Apr-20 @ 22:00 UTC
(in 4 hours)
Apr-20 @ 18:00 - Apr-20 @ 22:00
Wind Visibility
90° at 16 knots 10,000+ meters
Clouds
  • Few at 1,200' AGL
  • Broken at 2,500' AGL
Temporary Apr-20 @ 18:00 - Apr-20 @ 22:00
Wind Visibility
110° at 17 knots
 Gusting to 27 knots
6,003 meters
Clouds
  • Scattered at 1,200' AGL
  • Broken at 1,800' AGL
Conditions
  • Haze